Aeroporto :
LOGIN :

Iscrizione | Disclaimer

   EN    FR    IT 

 










Sommario :    VFR   VFR Marginale   IFR   IFR Intensivo   IFR Molto Intensivo
Visibilità : 
Base nubi : 
>= 8 km
>= 3000ft
5 / 8 km
1000 / 3000 ft
1500m / 5 km
500 / 1000 ft
800 / 1500m
200 / 500 ft
< 800m
< 200 ft
Simboli :   Temporali  Nebbia  Neve Forte  Precipitazioni Forti  Vento > 20 kt
SIGMETs :   Varie  Temporali  Ghiacco  Turbolenza  Onda orograficha  Ceneri Vulcaniche






- Altitudine del aeroporto : 1989 ft
- Codice IATA : KLV


LKKV - Karlovy Vary

ULTIMO METAR :
  • 252000Z 31006KT 9999 -SHRA SCT020 BKN043 09/06 Q1031

METARs OBSOLETI :
  • 251900Z 31006KT 9999 SCT020 BKN043 09/05 Q1031
  • 251830Z 32008KT 9999 SCT020 BKN043 09/05 Q1030
  • 251800Z 33009KT 9999 SCT020 BKN043 09/05 Q1030
  • 251730Z 32007KT 280V340 9999 -SHRA SCT020 BKN043 09/05 Q1030

TAF TAF LKKV
Valido dal 25 a 18 ore il 27 a 00 ore UTC


251700Z 2518/2700 31008KT 9999 BKN027
TEMPO 2518/2522 32010G20KT 7000 -SHRA SCT010TCU BKN017
PROB30
TEMPO 2600/2606 VRB02KT 2500 BR BKN004
PROB30
TEMPO 2610/2616 36014KT 8000 -SHRA BKN014
BECMG 2618/2620 VRB02KT 9999 SCT025



MetMap, La meteo Aeronautica in un colpo d'occhio ! - Copyright ORBIFLY Dicembre 2007 - Disclaimer

ORBIFLY MET'MAP TEAM :

Programmazione e sviluppo : Alexandra Zaïnal
Concezione : Baudouin d'Aumeries
Aiuto per la programmazione : Marc-Olivier Méhu
Supporto tecnico e logistico : Manuel Goepfert
Aiuto per la traduzione : Arnaldo La Scala

Contatto : metmap@orbifly.com




FONTI E CREDITI :

   NOAA